Athens, Wisconsin
Current Conditions -  °F | °C
As of 6:35 PM on Tuesday 25 Nov 2014 (Local Time) from KMDZ Reporting Station
Overcast Overcast  
Wind Chill:   Ceiling: 5000
Heat Index: 17°   Visibility: 10mi
Dew Point: 12°   Wind: 5mph
Humidity: 83%   Direction: 160°SSE
Pressure: 30.02"   Gusts: NA
Location:  45.03°N, 90.07°W
Report Text: KMDZ 260035Z AUTO 16004KT 10SM OVC050 M09/M11 A3002 RMK AO2 T10861110
Loading
Personal Weather Stations






























Interactive Weather Map New forecast layout! Learn more

10-Day Weather Forecast

Advertisements
Track Severe Weather on mobile